Aviation Digital Data Service (ADDS)

Output produced by METARs form (1200 UTC 20 January 2017)
found at http://www.aviationweather.gov/adds/metars/
 
METAR text: RODN 201158Z AUTO 35019G23KT 10SM SCT038 BKN110 14/06 A3025 RMK AO2 PK WND 35028/07 CIG 048 RWY23 SLP251 60000 T01360057 10157 20135 51017
Conditions at: RODN (KADENA (USAFB-NA, JP) observed 1158 UTC 20 January 2017
Temperature: 13.6°C (56°F)
Dewpoint: 5.7°C (42°F) [RH = 59%]
Pressure (altimeter): 30.25 inches Hg (1024.5 mb)
[Sea-level pressure: 1025.1 mb]
Winds: from the N (350 degrees) at 22 MPH (19 knots; 9.9 m/s)
gusting to 26 MPH (23 knots; 12.0 m/s)
Visibility: 10 or more miles (16+ km)
Ceiling: 11000 feet AGL
Clouds: scattered clouds at 3800 feet AGL
broken clouds at 11000 feet AGL
Weather: automated observation with no human augmentation;
there may or may not be significant weather present at this time

METAR text: ROTM 201058Z 36020G27KT 9000 HZ BKN030 OVC050 13/06 A3026 RMK PK WND 01031/15 SLP234 WND WRNG XWND ADV T01280061
Conditions at: ROTM (FUTENMA(US-MCAS), JP) observed 1058 UTC 20 January 2017
Temperature: 12.8°C (55°F)
Dewpoint: 6.1°C (43°F) [RH = 64%]
Pressure (altimeter): 30.26 inches Hg (1024.8 mb)
[Sea-level pressure: 1023.4 mb]
Winds: from the N (360 degrees) at 23 MPH (20 knots; 10.4 m/s)
gusting to 31 MPH (27 knots; 14.0 m/s)
Visibility: 6 miles (9 km)
Ceiling: 3000 feet AGL
Clouds: broken clouds at 3000 feet AGL
overcast cloud deck at 5000 feet AGL
Weather: HZ  (haze)

METAR text: ROAH 201130Z 36023KT 9999 FEW038 BKN050 BKN110 14/06 Q1024 RMK 1CU038 5SC050 6AC110 A3025
Conditions at: ROAH (NAHA (CIV/JASDF), JP) observed 1130 UTC 20 January 2017
Temperature: 14.0°C (57°F)
Dewpoint: 6.0°C (43°F) [RH = 58%]
Pressure (altimeter): 30.24 inches Hg (1024.0 mb)
Winds: from the N (360 degrees) at 26 MPH (23 knots; 12.0 m/s)
Visibility: 6 or more miles (10+ km)
Ceiling: 5000 feet AGL
Clouds: few clouds at 3800 feet AGL
broken clouds at 5000 feet AGL
broken clouds at 11000 feet AGL
Weather: no significant weather observed at this time